Time;durP1;ratioP1;P1;durP2;ratioP2;P2;SDS_P1;SDS_P2;PMS_P1;PMS_P2;Temp;Humidity;BMP_temperature;BMP_pressure;BME280_temperature;BME280_humidity;BME280_pressure;Samples;Min_cycle;Max_cycle;Signal;HPM_P1;HPM_P2
2021/05/13 00:00:56;;;;;;;;;;;;;;;21.43;30.90;97199.88;5120521;28;1981;-75
2021/05/13 00:03:21;;;;;;;;;;;;;;;21.78;30.10;97198.50;5120638;28;693;-75
2021/05/13 00:05:47;;;;;;;;;;;;;;;21.66;30.59;97202.22;5120427;28;667;-75
2021/05/13 00:08:12;;;;;;;;;;;;;;;21.69;30.47;97206.94;5120480;28;939;-74
2021/05/13 00:10:38;;;;;;;;;;;;;;;21.66;30.41;97204.22;5120128;28;862;-75
2021/05/13 00:13:06;;;;;;;;;;;;;;;21.64;30.49;97193.38;5120246;28;905;-75
2021/05/13 00:15:36;;;;;;;;;;;;;;;21.61;30.56;97187.88;5120382;28;625;-75
2021/05/13 00:18:02;;;;;;;;;;;;;;;21.72;30.36;97172.03;5120741;28;732;-75
2021/05/13 00:20:31;;;;;;;;;;;;;;;21.71;30.15;97164.81;5120441;28;1914;-75
2021/05/13 00:22:57;;;;;;;;;;;;;;;21.68;30.45;97162.91;5102987;28;610;-75
2021/05/13 00:25:22;;;;;;;;;;;;;;;21.68;30.10;97160.06;5119957;28;977;-75
2021/05/13 00:27:48;;;;;;;;;;;;;;;21.59;30.48;97163.63;5119988;28;818;-74
2021/05/13 00:30:13;;;;;;;;;;;;;;;21.67;30.43;97164.16;5102683;28;1325;-75
2021/05/13 00:32:39;;;;;;;;;;;;;;;21.66;30.42;97165.41;5120171;28;760;-75
2021/05/13 00:35:08;;;;;;;;;;;;;;;21.60;30.32;97178.56;5120228;28;653;-75
2021/05/13 00:37:33;;;;;;;;;;;;;;;21.61;30.50;97182.22;5120420;28;644;-75
2021/05/13 00:39:59;;;;;;;;;;;;;;;21.65;30.31;97185.69;5119604;28;1906;-75
2021/05/13 00:42:24;;;;;;;;;;;;;;;21.58;30.35;97183.94;5120146;28;890;-75
2021/05/13 00:44:52;;;;;;;;;;;;;;;21.58;30.58;97217.88;5120012;28;807;-75
2021/05/13 00:47:17;;;;;;;;;;;;;;;21.62;30.32;97178.91;5120327;28;625;-75
2021/05/13 00:49:43;;;;;;;;;;;;;;;21.49;30.57;97181.03;5119958;28;674;-75
2021/05/13 00:52:09;;;;;;;;;;;;;;;21.53;30.54;97181.69;5120134;28;761;-75
2021/05/13 00:54:35;;;;;;;;;;;;;;;21.50;30.33;97182.63;5119687;28;880;-75
2021/05/13 00:57:01;;;;;;;;;;;;;;;21.59;30.31;97188.31;5102027;28;969;-75
2021/05/13 00:59:28;;;;;;;;;;;;;;;21.62;30.06;97178.91;5122906;28;1897;-75
2021/05/13 01:01:54;;;;;;;;;;;;;;;21.55;30.32;97179.19;5124095;28;752;-75
2021/05/13 01:04:19;;;;;;;;;;;;;;;21.51;30.48;97175.72;5123739;28;676;-75
2021/05/13 01:06:45;;;;;;;;;;;;;;;21.48;30.26;97162.50;5124184;28;641;-73
2021/05/13 01:09:11;;;;;;;;;;;;;;;21.55;30.16;97162.19;5123393;28;983;-75
2021/05/13 01:11:39;;;;;;;;;;;;;;;21.59;29.99;97143.03;5123614;28;930;-75
2021/05/13 01:16:48;;;;;;;;;;;;;;;21.43;30.73;97154.59;5123558;28;696;-74
2021/05/13 01:19:16;;;;;;;;;;;;;;;21.54;30.19;97144.44;5123619;28;1980;-74
2021/05/13 01:21:42;;;;;;;;;;;;;;;21.60;30.30;97161.59;5123340;28;917;-75
2021/05/13 01:24:07;;;;;;;;;;;;;;;21.64;29.93;97153.75;5123023;28;897;-74
2021/05/13 01:26:33;;;;;;;;;;;;;;;21.50;30.29;97160.78;5105547;28;1354;-75
2021/05/13 01:28:58;;;;;;;;;;;;;;;21.44;30.48;97147.69;5123377;28;672;-75
2021/05/13 01:31:24;;;;;;;;;;;;;;;21.55;30.25;97142.38;5123526;28;684;-75
2021/05/13 01:33:49;;;;;;;;;;;;;;;21.58;30.34;97138.63;5123204;28;689;-75
2021/05/13 01:36:15;;;;;;;;;;;;;;;21.64;30.17;97136.75;5123006;28;849;-75
2021/05/13 01:38:41;;;;;;;;;;;;;;;21.73;29.73;97133.97;5122824;28;957;-75
2021/05/13 01:41:07;;;;;;;;;;;;;;;21.57;30.25;97134.22;5122868;28;1901;-75
2021/05/13 01:43:32;;;;;;;;;;;;;;;21.61;30.01;97137.72;5123282;28;609;-75
2021/05/13 01:45:59;;;;;;;;;;;;;;;21.50;30.29;97131.66;5123149;28;602;-75
2021/05/13 01:48:25;;;;;;;;;;;;;;;21.61;30.20;97115.06;5122647;28;1030;-75
2021/05/13 01:50:50;;;;;;;;;;;;;;;21.54;30.48;97113.28;5122771;28;896;-75
2021/05/13 01:53:16;;;;;;;;;;;;;;;21.54;30.23;97115.34;5122905;28;1002;-75
2021/05/13 01:55:41;;;;;;;;;;;;;;;21.50;30.25;97121.16;5105107;28;629;-75
2021/05/13 01:58:06;;;;;;;;;;;;;;;21.57;30.18;97109.53;5122592;28;1021;-75
2021/05/13 02:00:33;;;;;;;;;;;;;;;22.00;30.48;97119.09;5105328;28;1976;-75
2021/05/13 02:02:58;;;;;;;;;;;;;;;22.17;31.27;97122.44;5122333;28;943;-75
2021/05/13 02:05:24;;;;;;;;;;;;;;;22.30;31.19;97111.75;5122314;28;903;-75
2021/05/13 02:07:49;;;;;;;;;;;;;;;22.00;31.46;97112.63;5122568;28;959;-75
2021/05/13 02:10:15;;;;;;;;;;;;;;;21.96;31.29;97117.66;5122004;28;674;-75
2021/05/13 02:12:41;;;;;;;;;;;;;;;21.81;30.91;97118.28;5104681;28;969;-75
2021/05/13 02:15:07;;;;;;;;;;;;;;;21.82;30.98;97125.50;5087226;28;911;-75
2021/05/13 02:17:32;;;;;;;;;;;;;;;21.72;30.90;97120.28;5122478;28;820;-74
2021/05/13 02:19:58;;;;;;;;;;;;;;;21.63;31.27;97118.19;5122459;28;1898;-75
2021/05/13 02:22:23;;;;;;;;;;;;;;;21.65;31.42;97118.50;5122228;28;661;-74
2021/05/13 02:24:49;;;;;;;;;;;;;;;21.76;30.73;97118.88;5122905;28;640;-74
2021/05/13 02:27:14;;;;;;;;;;;;;;;21.70;31.24;97125.59;5122526;28;609;-75
2021/05/13 02:29:39;;;;;;;;;;;;;;;21.74;31.02;97135.53;5122099;28;823;-75
2021/05/13 02:32:05;;;;;;;;;;;;;;;21.65;31.05;97146.81;5122199;28;629;-75
2021/05/13 02:34:30;;;;;;;;;;;;;;;21.71;30.97;97161.97;5103996;28;1236;-74
2021/05/13 02:36:56;;;;;;;;;;;;;;;21.68;30.84;97165.72;5121614;28;958;-75
2021/05/13 02:39:21;;;;;;;;;;;;;;;21.68;31.12;97162.91;5121882;28;1926;-75
2021/05/13 02:41:46;;;;;;;;;;;;;;;21.68;31.01;97153.63;5122209;28;645;-75
2021/05/13 02:44:12;;;;;;;;;;;;;;;21.58;31.11;97149.94;5104098;28;1269;-75
2021/05/13 02:46:37;;;;;;;;;;;;;;;21.50;31.02;97138.13;5121863;28;649;-75
2021/05/13 02:49:06;;;;;;;;;;;;;;;21.67;31.04;97127.34;5121394;28;915;-75
2021/05/13 02:51:31;;;;;;;;;;;;;;;21.58;31.25;97121.66;5121365;28;824;-75
2021/05/13 02:53:57;;;;;;;;;;;;;;;21.62;30.83;97116.63;5122137;28;872;-75
2021/05/13 02:56:22;;;;;;;;;;;;;;;21.64;31.03;97119.78;5121866;28;707;-75
2021/05/13 02:58:50;;;;;;;;;;;;;;;21.53;31.01;97113.75;5121408;28;996;-75
2021/05/13 03:03:50;;;;;;;;;;;;;;;21.67;30.58;97113.19;5121455;28;641;-75
2021/05/13 03:06:15;;;;;;;;;;;;;;;21.66;30.58;97108.78;5121188;28;971;-76
2021/05/13 03:08:42;;;;;;;;;;;;;;;21.64;30.92;97104.84;5120982;28;904;-75
2021/05/13 03:11:07;;;;;;;;;;;;;;;21.70;30.52;97106.56;5121098;28;945;-75
2021/05/13 03:13:33;;;;;;;;;;;;;;;21.67;30.58;97107.53;5121297;28;649;-75
2021/05/13 03:15:58;;;;;;;;;;;;;;;21.70;30.59;97120.72;5121361;28;713;-75
2021/05/13 03:18:25;;;;;;;;;;;;;;;21.63;30.89;97129.53;5121045;28;791;-75
2021/05/13 03:20:56;;;;;;;;;;;;;;;21.65;30.64;97129.84;5120034;28;1901;-74
2021/05/13 03:23:27;;;;;;;;;;;;;;;21.59;30.68;97126.03;5085203;28;912;-74
2021/05/13 03:25:59;;;;;;;;;;;;;;;21.55;30.88;97128.22;5121091;28;586;-75
2021/05/13 03:28:25;;;;;;;;;;;;;;;21.62;30.75;97122.28;5120966;28;628;-73
2021/05/13 03:30:50;;;;;;;;;;;;;;;21.67;30.66;97113.19;5121226;28;621;-75
2021/05/13 03:33:16;;;;;;;;;;;;;;;21.62;30.60;97115.84;5121015;28;667;-73
2021/05/13 03:35:41;;;;;;;;;;;;;;;21.62;30.82;97122.28;5120532;28;963;-75
2021/05/13 03:38:07;;;;;;;;;;;;;;;21.59;30.89;97117.56;5120622;28;878;-74
2021/05/13 03:40:32;;;;;;;;;;;;;;;21.51;30.81;97114.25;5121133;28;1975;-73
2021/05/13 03:42:58;;;;;;;;;;;;;;;21.67;30.60;97113.19;5120722;28;652;-75
2021/05/13 03:45:24;;;;;;;;;;;;;;;21.64;30.65;97122.59;5121081;28;621;-75
2021/05/13 03:47:49;;;;;;;;;;;;;;;21.62;30.89;97116.63;5121089;28;645;-75
2021/05/13 03:50:15;;;;;;;;;;;;;;;21.73;30.46;97119.81;5120604;28;895;-75
2021/05/13 03:52:46;;;;;;;;;;;;;;;21.63;30.73;97117.41;5120303;28;880;-75
2021/05/13 03:55:12;;;;;;;;;;;;;;;21.58;30.74;97118.81;5120551;28;864;-75
2021/05/13 03:57:38;;;;;;;;;;;;;;;21.75;30.42;97119.34;5120741;28;651;-75
2021/05/13 04:00:08;;;;;;;;;;;;;;;21.55;31.05;97128.22;5120601;28;1969;-75
2021/05/13 04:02:34;;;;;;;;;;;;;;;21.62;30.83;97133.63;5120590;28;703;-75
2021/05/13 04:05:00;;;;;;;;;;;;;;;21.51;31.20;97136.09;5120381;28;1090;-76
2021/05/13 04:07:29;;;;;;;;;;;;;;;21.64;30.67;97145.25;5120358;28;801;-75
2021/05/13 04:09:54;;;;;;;;;;;;;;;21.69;30.49;97138.97;5120328;28;920;-75
2021/05/13 04:12:20;;;;;;;;;;;;;;;21.63;30.68;97140.06;5120370;28;732;-75
2021/05/13 04:14:45;;;;;;;;;;;;;;;21.62;30.79;97139.28;5120555;28;695;-76
2021/05/13 04:17:11;;;;;;;;;;;;;;;21.63;30.87;97140.84;5120336;28;649;-76
2021/05/13 04:19:36;;;;;;;;;;;;;;;21.69;30.57;97138.97;5120275;28;1906;-75
2021/05/13 04:22:02;;;;;;;;;;;;;;;21.60;30.76;97147.44;5120437;28;904;-75
2021/05/13 04:24:27;;;;;;;;;;;;;;;21.69;30.52;97150.31;5102731;28;924;-75
2021/05/13 04:26:53;;;;;;;;;;;;;;;21.62;30.69;97139.28;5102668;28;645;-75
2021/05/13 04:29:18;;;;;;;;;;;;;;;21.40;31.25;97141.38;5120230;28;654;-75
2021/05/13 04:31:44;;;;;;;;;;;;;;;21.61;30.53;97131.25;5120530;28;841;-75
2021/05/13 04:34:09;;;;;;;;;;;;;;;21.64;30.48;97136.75;5124024;28;1031;-75
2021/05/13 04:36:35;;;;;;;;;;;;;;;21.57;30.97;97134.22;5124076;28;923;-75
2021/05/13 04:39:00;;;;;;;;;;;;;;;21.57;30.68;97131.41;5124355;28;892;-75
2021/05/13 04:41:29;;;;;;;;;;;;;;;21.55;30.88;97136.72;5124224;28;1898;-75
2021/05/13 04:43:55;;;;;;;;;;;;;;;21.57;30.51;97137.06;5124221;28;632;-75
2021/05/13 04:46:23;;;;;;;;;;;;;;;21.59;30.73;97141.00;5106820;28;1098;-75
2021/05/13 04:51:20;;;;;;;;;;;;;;;21.60;30.73;97155.94;5123849;28;891;-75
2021/05/13 04:53:46;;;;;;;;;;;;;;;21.54;30.49;97158.56;5124040;28;990;-75
2021/05/13 04:56:11;;;;;;;;;;;;;;;21.62;30.45;97155.47;5106573;28;813;-75
2021/05/13 04:58:37;;;;;;;;;;;;;;;21.69;30.19;97155.97;5124262;28;1032;-75
2021/05/13 05:01:02;;;;;;;;;;;;;;;21.54;30.51;97146.47;5105465;28;1897;-75
2021/05/13 05:03:28;;;;;;;;;;;;;;;21.59;30.40;97141.00;5123496;28;1035;-75
2021/05/13 05:05:53;;;;;;;;;;;;;;;21.57;30.54;97137.06;5123935;28;821;-76
2021/05/13 05:08:19;;;;;;;;;;;;;;;21.61;30.64;97137.72;5123644;28;818;-75
2021/05/13 05:10:45;;;;;;;;;;;;;;;21.54;30.56;97143.63;5123704;28;677;-75
2021/05/13 05:13:11;;;;;;;;;;;;;;;21.60;30.47;97141.78;5123737;28;656;-75
2021/05/13 05:15:36;;;;;;;;;;;;;;;21.57;30.55;97143.50;5123587;28;625;-75
2021/05/13 05:18:02;;;;;;;;;;;;;;;21.53;30.83;97142.06;5123165;28;1061;-75
2021/05/13 05:20:27;;;;;;;;;;;;;;;21.56;30.62;97141.16;5123324;28;1973;-75
2021/05/13 05:22:53;;;;;;;;;;;;;;;21.58;30.48;97144.28;5123737;28;929;-75
2021/05/13 05:25:19;;;;;;;;;;;;;;;21.56;30.76;97147.59;5123682;28;664;-75
2021/05/13 05:27:44;;;;;;;;;;;;;;;21.72;30.33;97146.56;5123533;28;634;-75
2021/05/13 05:30:12;;;;;;;;;;;;;;;21.60;30.53;97147.44;5123385;28;669;-75
2021/05/13 05:32:38;;;;;;;;;;;;;;;21.55;30.56;97148.03;5123029;28;859;-75
2021/05/13 05:35:04;;;;;;;;;;;;;;;21.60;30.46;97147.44;5122921;28;948;-75
2021/05/13 05:37:30;;;;;;;;;;;;;;;21.64;30.32;97142.41;5123243;28;1020;-75
2021/05/13 05:39:56;;;;;;;;;;;;;;;21.64;30.54;97135.97;5123378;28;1897;-75
2021/05/13 05:42:21;;;;;;;;;;;;;;;21.64;30.62;97148.09;5123436;28;593;-75
2021/05/13 05:44:47;;;;;;;;;;;;;;;21.64;30.72;97145.25;5122366;28;665;-75
2021/05/13 05:47:16;;;;;;;;;;;;;;;21.62;30.48;97156.25;5122642;28;922;-76
2021/05/13 05:49:41;;;;;;;;;;;;;;;21.60;30.56;97158.75;5122683;28;824;-75
2021/05/13 05:52:07;;;;;;;;;;;;;;;21.55;30.50;97153.69;5122800;28;976;-75
2021/05/13 05:54:32;;;;;;;;;;;;;;;21.59;30.68;97154.34;5122967;28;613;-75
2021/05/13 05:56:58;;;;;;;;;;;;;;;21.57;30.47;97156.88;5122749;28;640;-75
2021/05/13 05:59:23;;;;;;;;;;;;;;;21.62;30.55;97144.94;5122629;28;1925;-75
2021/05/13 06:01:49;;;;;;;;;;;;;;;21.67;30.41;97152.81;5122459;28;935;-76
2021/05/13 06:04:14;;;;;;;;;;;;;;;21.67;30.57;97161.31;5122417;28;918;-75
2021/05/13 06:06:40;;;;;;;;;;;;;;;21.46;30.72;97171.44;5122510;28;895;-75
2021/05/13 06:09:05;;;;;;;;;;;;;;;21.56;30.50;97177.94;5122652;28;873;-75
2021/05/13 06:11:31;;;;;;;;;;;;;;;21.62;30.27;97178.91;5122800;28;621;-75
2021/05/13 06:13:56;;;;;;;;;;;;;;;21.71;30.13;97173.31;5122539;28;683;-75
2021/05/13 06:16:22;;;;;;;;;;;;;;;21.61;30.43;97180.19;5122291;28;906;-75
2021/05/13 06:18:51;;;;;;;;;;;;;;;21.64;30.51;97173.56;5122096;28;918;-75
2021/05/13 06:21:16;;;;;;;;;;;;;;;21.73;30.30;97173.59;5104629;28;1985;-75
2021/05/13 06:23:49;;;;;;;;;;;;;;;21.70;30.35;97168.88;5104549;28;1134;-75
2021/05/13 06:26:25;;;;;;;;;;;;;;;21.55;30.57;97179.19;5122280;28;689;-75
2021/05/13 06:28:51;;;;;;;;;;;;;;;21.47;31.08;97175.06;5122581;28;657;-75
2021/05/13 06:31:16;;;;;;;;;;;;;;;21.59;30.77;97172.13;5121864;28;1036;-75
2021/05/13 06:33:41;;;;;;;;;;;;;;;21.50;31.07;97176.94;5122125;28;811;-75
2021/05/13 06:36:07;;;;;;;;;;;;;;;21.55;30.63;97170.69;5121969;28;987;-75
2021/05/13 06:38:32;;;;;;;;;;;;;;;21.57;30.72;97174.66;5122063;28;634;-75
2021/05/13 06:40:58;;;;;;;;;;;;;;;21.72;30.50;97177.69;5103956;28;1902;-75
2021/05/13 06:43:23;;;;;;;;;;;;;;;21.64;30.48;97165.06;5121963;28;645;-75
2021/05/13 06:45:49;;;;;;;;;;;;;;;21.70;30.38;97168.88;5121596;28;1017;-75
2021/05/13 06:48:14;;;;;;;;;;;;;;;21.66;30.48;97164.59;5121617;28;980;-75
2021/05/13 06:50:40;;;;;;;;;;;;;;;21.61;30.58;97166.03;5121731;28;981;-75
2021/05/13 06:53:07;;;;;;;;;;;;;;;21.54;30.58;97166.28;5121818;28;661;-75
2021/05/13 06:55:32;;;;;;;;;;;;;;;21.68;30.38;97167.78;5121624;28;656;-75
2021/05/13 06:57:58;;;;;;;;;;;;;;;21.57;30.64;97171.03;5121734;28;934;-75
2021/05/13 07:00:25;;;;;;;;;;;;;;;21.58;30.51;97170.56;5121289;28;1975;-75
2021/05/13 07:02:50;;;;;;;;;;;;;;;21.70;30.49;97170.91;5121246;28;928;-75
2021/05/13 07:05:16;;;;;;;;;;;;;;;21.67;30.54;97164.16;5121410;28;969;-75
2021/05/13 07:07:41;;;;;;;;;;;;;;;21.67;30.38;97164.16;5121494;28;659;-75
2021/05/13 07:10:07;;;;;;;;;;;;;;;21.65;30.45;97166.66;5121648;28;611;-75
2021/05/13 07:12:33;;;;;;;;;;;;;;;21.55;30.63;97157.34;5121409;28;625;-75
2021/05/13 07:15:01;;;;;;;;;;;;;;;21.67;30.65;97163.38;5120858;28;1025;-75
2021/05/13 07:17:33;;;;;;;;;;;;;;;21.69;30.17;97167.28;5121128;28;908;-75
2021/05/13 07:19:59;;;;;;;;;;;;;;;21.71;30.13;97176.13;5103886;28;1969;-75
2021/05/13 07:22:24;;;;;;;;;;;;;;;21.67;30.27;97181.13;5121180;28;661;-75
2021/05/13 07:24:50;;;;;;;;;;;;;;;21.55;30.58;97179.19;5121149;28;671;-75
2021/05/13 07:27:15;;;;;;;;;;;;;;;21.64;30.33;97181.28;5121188;28;597;-75
2021/05/13 07:29:41;;;;;;;;;;;;;;;21.71;30.12;97181.78;5120735;28;965;-75
2021/05/13 07:32:06;;;;;;;;;;;;;;;21.75;30.21;97188.06;5121062;28;843;-75
2021/05/13 07:34:32;;;;;;;;;;;;;;;21.58;30.41;97178.25;5120996;28;928;-75
2021/05/13 07:36:57;;;;;;;;;;;;;;;21.73;30.41;97179.28;5121096;28;826;-75
2021/05/13 07:39:23;;;;;;;;;;;;;;;21.64;30.21;97176.41;5121168;28;733;-75
2021/05/13 07:41:48;;;;;;;;;;;;;;;21.65;30.37;97177.97;5120912;28;1897;-75
2021/05/13 07:44:14;;;;;;;;;;;;;;;21.73;30.08;97167.94;5120437;28;977;-75
2021/05/13 07:46:40;;;;;;;;;;;;;;;21.68;30.12;97177.06;5120670;28;953;-75
2021/05/13 07:49:05;;;;;;;;;;;;;;;21.55;30.30;97168.66;5103338;28;811;-76
2021/05/13 07:51:32;;;;;;;;;;;;;;;21.64;30.54;97165.06;5103127;28;1352;-75
2021/05/13 07:53:57;;;;;;;;;;;;;;;21.81;29.95;97168.44;5120991;28;646;-76
2021/05/13 07:56:23;;;;;;;;;;;;;;;21.66;30.20;97162.59;5120922;28;629;-75
2021/05/13 07:58:48;;;;;;;;;;;;;;;21.69;30.22;97164.47;5120556;28;1002;-75
2021/05/13 08:01:13;;;;;;;;;;;;;;;21.64;30.40;97159.41;5120138;28;1980;-75
2021/05/13 08:03:39;;;;;;;;;;;;;;;21.38;30.77;97158.81;5120446;28;1051;-76
2021/05/13 08:06:05;;;;;;;;;;;;;;;21.69;30.36;97161.63;5120897;28;773;-75
2021/05/13 08:08:30;;;;;;;;;;;;;;;21.64;30.41;97173.56;5119997;28;669;-75
2021/05/13 08:10:55;;;;;;;;;;;;;;;21.71;30.44;97176.13;5120477;28;680;-75
2021/05/13 08:13:21;;;;;;;;;;;;;;;21.62;30.21;97170.41;5120490;28;925;-75
2021/05/13 08:15:46;;;;;;;;;;;;;;;21.67;30.13;97175.47;5120203;28;999;-75
2021/05/13 08:18:12;;;;;;;;;;;;;;;21.71;30.30;97166.81;5120278;28;938;-75
2021/05/13 08:20:37;;;;;;;;;;;;;;;21.77;30.42;97162.94;5120433;28;1971;-75
2021/05/13 08:23:03;;;;;;;;;;;;;;;21.72;30.16;97159.94;5120594;28;717;-75
2021/05/13 08:25:28;;;;;;;;;;;;;;;21.66;30.52;97159.75;5120317;28;653;-75
2021/05/13 08:27:54;;;;;;;;;;;;;;;21.73;30.14;97164.34;5120080;28;872;-75
2021/05/13 08:30:19;;;;;;;;;;;;;;;21.62;30.35;97161.94;5120176;28;830;-75
2021/05/13 08:32:45;;;;;;;;;;;;;;;21.67;30.30;97169.81;5120173;28;883;-75
2021/05/13 08:35:10;;;;;;;;;;;;;;;21.63;30.32;97163.50;5120661;28;598;-76
2021/05/13 08:37:36;;;;;;;;;;;;;;;21.50;30.40;97171.28;5102619;28;684;-75
2021/05/13 08:40:01;;;;;;;;;;;;;;;21.69;30.58;97172.16;5120393;28;1897;-75
2021/05/13 08:42:27;;;;;;;;;;;;;;;21.71;30.37;97164.81;5102258;28;1370;-75
2021/05/13 08:44:52;;;;;;;;;;;;;;;21.75;30.47;97165.44;5119738;28;952;-75
2021/05/13 08:47:18;;;;;;;;;;;;;;;21.67;30.53;97166.19;5102471;28;982;-75
2021/05/13 08:49:43;;;;;;;;;;;;;;;21.69;30.22;97172.16;5120184;28;636;-75
2021/05/13 08:52:13;;;;;;;;;;;;;;;21.79;30.09;97163.25;5120107;28;609;-75
2021/05/13 08:54:54;;;;;;;;;;;;;;;21.72;30.45;97155.06;5120357;28;649;-75
2021/05/13 08:57:19;;;;;;;;;;;;;;;21.68;30.51;97154.41;5119775;28;860;-75
2021/05/13 08:59:45;;;;;;;;;;;;;;;21.81;30.03;97157.91;5119434;28;1965;-75
2021/05/13 09:02:11;;;;;;;;;;;;;;;21.81;30.29;97162.78;5120207;28;625;-75
2021/05/13 09:04:40;;;;;;;;;;;;;;;21.85;30.16;97152.88;5120436;28;613;-75
2021/05/13 09:07:09;;;;;;;;;;;;;;;21.73;30.14;97153.78;5119875;28;754;-75
2021/05/13 09:09:35;;;;;;;;;;;;;;;21.90;29.98;97153.53;5119914;28;693;-75
2021/05/13 09:12:01;;;;;;;;;;;;;;;21.90;30.11;97153.53;5119645;28;1063;-75
2021/05/13 09:14:30;;;;;;;;;;;;;;;21.79;30.07;97151.91;5119988;28;855;-75
2021/05/13 09:16:56;;;;;;;;;;;;;;;21.72;30.30;97154.25;5120140;28;832;-75
2021/05/13 09:19:21;;;;;;;;;;;;;;;21.74;30.27;97152.53;5121302;28;697;-75
2021/05/13 09:21:57;;;;;;;;;;;;;;;21.70;30.44;97151.88;5123624;28;1906;-75
2021/05/13 09:25:02;;;;;;;;;;;;;;;21.73;30.59;97153.00;5123639;28;660;-75
2021/05/13 09:27:29;;;;;;;;;;;;;;;21.76;30.30;97144.38;5081326;28;1233;-75
2021/05/13 09:30:01;;;;;;;;;;;;;;;21.71;30.48;97142.16;5080868;28;957;-75
2021/05/13 09:32:26;;;;;;;;;;;;;;;21.79;30.49;97154.75;5103392;28;882;-76
2021/05/13 09:34:52;;;;;;;;;;;;;;;21.75;30.38;97156.16;5123297;28;665;-75
2021/05/13 09:37:17;;;;;;;;;;;;;;;21.88;30.08;97145.50;5123280;28;689;-75
2021/05/13 09:39:46;;;;;;;;;;;;;;;21.80;30.45;97150.66;5123400;28;1909;-76
2021/05/13 09:42:12;;;;;;;;;;;;;;;21.79;30.18;97148.31;5122873;28;1042;-75
2021/05/13 09:44:38;;;;;;;;;;;;;;;21.71;30.60;97145.00;5122867;28;823;-75
2021/05/13 09:47:20;;;;;;;;;;;;;;;21.70;30.43;97151.88;5123170;28;856;-75
2021/05/13 09:50:05;;;;;;;;;;;;;;;21.69;30.52;97153.13;5123149;28;613;-75
2021/05/13 09:52:51;;;;;;;;;;;;;;;21.74;30.30;97140.41;5122925;28;709;-75
2021/05/13 09:55:18;;;;;;;;;;;;;;;21.87;30.22;97148.81;5122897;28;720;-75
2021/05/13 09:58:06;;;;;;;;;;;;;;;21.74;30.31;97141.19;5120531;28;1166;-75
2021/05/13 10:00:39;;;;;;;;;;;;;;;21.88;30.36;97144.72;5122500;28;1918;-75
2021/05/13 10:03:08;;;;;;;;;;;;;;;21.82;30.17;97153.81;5122725;28;621;-75
2021/05/13 10:05:33;;;;;;;;;;;;;;;21.82;30.34;97159.50;5122671;28;688;-75
2021/05/13 10:08:01;;;;;;;;;;;;;;;21.67;30.64;97152.81;5122610;28;625;-75
2021/05/13 10:10:28;;;;;;;;;;;;;;;21.73;30.48;97150.97;5105130;28;1186;-75
2021/05/13 10:12:57;;;;;;;;;;;;;;;21.75;30.49;97154.09;5122192;28;981;-75
2021/05/13 10:15:26;;;;;;;;;;;;;;;21.75;30.23;97159.75;5105074;28;876;-75
2021/05/13 10:17:57;;;;;;;;;;;;;;;21.78;30.52;97141.84;5122108;28;904;-75
2021/05/13 10:20:24;;;;;;;;;;;;;;;21.79;30.36;97136.97;5105122;28;1973;-75
2021/05/13 10:22:51;;;;;;;;;;;;;;;21.72;30.64;97132.41;5104864;28;781;-75
2021/05/13 10:25:17;;;;;;;;;;;;;;;21.76;30.70;97143.56;5122290;28;605;-75
2021/05/13 10:27:43;;;;;;;;;;;;;;;21.88;30.15;97150.38;5122000;28;939;-76
2021/05/13 10:30:12;;;;;;;;;;;;;;;21.74;30.54;97146.88;5104249;28;1303;-75
2021/05/13 10:32:38;;;;;;;;;;;;;;;21.67;30.72;97135.84;5104989;28;1066;-76
2021/05/13 10:35:07;;;;;;;;;;;;;;;21.76;30.60;97135.06;5122094;28;645;-75
2021/05/13 10:37:37;;;;;;;;;;;;;;;21.63;30.81;97123.88;5104417;28;617;-76
2021/05/13 10:40:08;;;;;;;;;;;;;;;21.86;30.38;97125.34;5104394;28;1898;-75
2021/05/13 10:42:33;;;;;;;;;;;;;;;21.78;30.41;97113.53;5121785;28;976;-74
2021/05/13 10:44:59;;;;;;;;;;;;;;;21.80;30.49;97125.16;5121831;28;1007;-74
2021/05/13 10:47:28;;;;;;;;;;;;;;;21.73;30.44;97128.31;5121862;28;931;-75
2021/05/13 10:50:03;;;;;;;;;;;;;;;21.85;30.60;97135.88;5104271;28;754;-75
2021/05/13 10:52:32;;;;;;;;;;;;;;;21.71;30.64;97132.84;5104246;28;646;-75
2021/05/13 10:54:58;;;;;;;;;;;;;;;21.64;30.78;97131.09;5104383;28;840;-74
2021/05/13 10:57:23;;;;;;;;;;;;;;;21.63;30.67;97134.41;5121387;28;959;-75
2021/05/13 11:00:07;;;;;;;;;;;;;;;21.76;30.53;97133.06;5121171;28;1910;-75
2021/05/13 11:02:39;;;;;;;;;;;;;;;21.79;30.72;97137.75;5121583;28;1083;-75
2021/05/13 11:05:23;;;;;;;;;;;;;;;21.78;30.71;97139.03;5121850;28;597;-75
2021/05/13 11:07:49;;;;;;;;;;;;;;;21.66;30.57;97148.44;5121536;28;664;-75
2021/05/13 11:10:14;;;;;;;;;;;;;;;21.85;30.34;97144.38;5121489;28;637;-75
2021/05/13 11:12:40;;;;;;;;;;;;;;;21.95;30.15;97138.75;5121547;28;973;-75
2021/05/13 11:15:26;;;;;;;;;;;;;;;21.91;30.48;97138.09;5121144;28;782;-76
2021/05/13 11:17:57;;;;;;;;;;;;;;;21.85;30.33;97141.53;5121371;28;658;-75
2021/05/13 11:20:23;;;;;;;;;;;;;;;21.87;30.18;97134.66;5121415;28;1913;-75
2021/05/13 11:22:52;;;;;;;;;;;;;;;21.73;30.59;97133.97;5103499;28;927;-75
2021/05/13 11:25:18;;;;;;;;;;;;;;;21.75;30.29;97137.09;5121177;28;601;-75
2021/05/13 11:27:43;;;;;;;;;;;;;;;21.63;30.93;97129.53;5103243;28;1225;-75
2021/05/13 11:30:09;;;;;;;;;;;;;;;21.75;30.50;97128.63;5120854;28;881;-75
2021/05/13 11:32:35;;;;;;;;;;;;;;;21.62;30.89;97139.28;5120952;28;966;-75
2021/05/13 11:35:00;;;;;;;;;;;;;;;21.53;30.86;97130.75;5103434;28;621;-76
2021/05/13 11:37:35;;;;;;;;;;;;;;;21.81;30.17;97126.78;5121139;28;643;-75
2021/05/13 11:40:19;;;;;;;;;;;;;;;21.99;29.91;97128.06;5120926;28;2029;-75
2021/05/13 11:42:44;;;;;;;;;;;;;;;21.79;30.33;97125.66;5120206;28;869;-75
2021/05/13 11:45:20;;;;;;;;;;;;;;;21.83;30.50;97121.41;5120931;28;881;-76
2021/05/13 11:47:45;;;;;;;;;;;;;;;21.99;29.81;97119.56;5103190;28;786;-75
2021/05/13 11:50:31;;;;;;;;;;;;;;;21.88;29.99;97119.22;5120905;28;681;-75
2021/05/13 11:53:03;;;;;;;;;;;;;;;21.84;30.13;97116.53;5120992;28;899;-75
2021/05/13 11:55:31;;;;;;;;;;;;;;;21.74;30.51;97112.88;5121004;28;721;-76
2021/05/13 11:57:57;;;;;;;;;;;;;;;21.85;30.34;97113.22;5120102;28;940;-75
2021/05/13 12:00:22;;;;;;;;;;;;;;;21.84;30.01;97106.00;5120166;28;1972;-75
2021/05/13 12:02:49;;;;;;;;;;;;;;;21.71;30.36;97102.50;5103349;28;1043;-76
2021/05/13 12:05:14;;;;;;;;;;;;;;;21.89;30.38;97112.31;5120818;28;613;-75
2021/05/13 12:07:40;;;;;;;;;;;;;;;21.75;30.44;97108.78;5120801;28;827;-75
2021/05/13 12:10:06;;;;;;;;;;;;;;;21.91;30.21;97115.44;5120857;28;696;-76
2021/05/13 12:12:35;;;;;;;;;;;;;;;21.95;29.85;97110.41;5117508;28;897;-75
2021/05/13 12:15:11;;;;;;;;;;;;;;;21.95;29.82;97111.22;5120376;28;950;-76
2021/05/13 12:17:36;;;;;;;;;;;;;;;21.87;30.12;97114.81;5120623;28;864;-75
2021/05/13 12:20:02;;;;;;;;;;;;;;;21.92;29.90;97108.53;5103470;28;1906;-75
2021/05/13 12:22:28;;;;;;;;;;;;;;;21.86;29.92;97099.84;5120834;28;766;-75
2021/05/13 12:24:55;;;;;;;;;;;;;;;21.83;30.16;97112.91;5103370;28;629;-75
2021/05/13 12:27:21;;;;;;;;;;;;;;;21.78;30.13;97102.22;5102808;28;849;-75
2021/05/13 12:29:49;;;;;;;;;;;;;;;21.98;29.72;97103.84;5120447;28;837;-75
2021/05/13 12:32:29;;;;;;;;;;;;;;;21.75;30.13;97100.31;5102223;28;1232;-75
2021/05/13 12:34:55;;;;;;;;;;;;;;;21.83;30.05;97104.44;5102910;28;921;-75
2021/05/13 12:37:21;;;;;;;;;;;;;;;21.96;29.92;97100.66;5120546;28;619;-75
2021/05/13 12:39:47;;;;;;;;;;;;;;;22.04;29.58;97094.22;5120676;28;1969;-75
2021/05/13 12:42:31;;;;;;;;;;;;;;;21.87;30.11;97086.50;5120192;28;899;-75
2021/05/13 12:45:12;;;;;;;;;;;;;;;21.85;29.86;97084.91;5120070;28;890;-76
2021/05/13 12:47:38;;;;;;;;;;;;;;;21.83;29.86;97078.16;5120761;28;676;-75
2021/05/13 12:50:04;;;;;;;;;;;;;;;21.90;29.89;97079.88;5120514;28;790;-75
2021/05/13 12:52:30;;;;;;;;;;;;;;;21.91;29.84;97084.28;5120681;28;849;-75
2021/05/13 12:55:09;;;;;;;;;;;;;;;21.79;29.91;97075.47;5124083;28;633;-75
2021/05/13 12:57:37;;;;;;;;;;;;;;;21.84;29.91;97076.88;5124030;28;904;-76
2021/05/13 13:00:04;;;;;;;;;;;;;;;21.79;29.89;97086.78;5123724;28;1956;-75
2021/05/13 13:02:30;;;;;;;;;;;;;;;21.94;30.03;97086.19;5124373;28;967;-75
2021/05/13 13:04:59;;;;;;;;;;;;;;;22.01;29.92;97080.22;5124229;28;590;-75
2021/05/13 13:07:39;;;;;;;;;;;;;;;21.93;30.08;97090.28;5124152;28;658;-75
2021/05/13 13:10:24;;;;;;;;;;;;;;;21.85;29.86;97082.06;5124317;28;632;-75
2021/05/13 13:13:06;;;;;;;;;;;;;;;21.91;30.08;97092.78;5123987;28;939;-75